RFR406 EICK-EIDL
Flight info
| Callsign | RFR406 |
|---|---|
| Flight time | 0h 44m |
| Altitude | 16000 |
| Route | KURUM DCT SHA/N0320F230 DCT CON DCT SLG DCT CFN |
| Aircraft | A400/M-SDE2E3FGRY/H |
Departure
| Time | 2026-04-30 21:32 |
|---|---|
| Airport | Cork International Airport (EICK) |
Arrival
| Time | 2026-04-30 22:17 |
|---|---|
| Airport | Donegal Airport (EIDL) |
| Time | Latitude | Longitude | Altitude | Speed | Heading |
|---|---|---|---|---|---|
| 2026-04-30 21:11 | 51.84522 | -8.48906 | 514 ft | 0 kts | 339° |
| 2026-04-30 21:28 | 51.84515 | -8.48902 | 514 ft | 0 kts | 338° |
| 2026-04-30 21:28 | 51.84514 | -8.48919 | 514 ft | 2 kts | 260° |
| 2026-04-30 21:28 | 51.84548 | -8.49077 | 514 ft | 13 kts | 339° |
| 2026-04-30 21:29 | 51.84639 | -8.49131 | 514 ft | 15 kts | 340° |
| 2026-04-30 21:29 | 51.84974 | -8.49292 | 514 ft | 18 kts | 341° |
| 2026-04-30 21:30 | 51.85142 | -8.49441 | 514 ft | 9 kts | 272° |
| 2026-04-30 21:31 | 51.85079 | -8.49525 | 514 ft | 6 kts | 206° |
| 2026-04-30 21:31 | 51.84964 | -8.49603 | 514 ft | 10 kts | 166° |
| 2026-04-30 21:32 | 51.84910 | -8.49571 | 514 ft | 32 kts | 159° |
| 2026-04-30 21:32 | 51.84375 | -8.49257 | 514 ft | 129 kts | 160° |
| 2026-04-30 21:32 | 51.83387 | -8.48640 | 944 ft | 163 kts | 159° |
| 2026-04-30 21:32 | 51.82240 | -8.48249 | 1716 ft | 171 kts | 175° |
| 2026-04-30 21:33 | 51.81035 | -8.48875 | 2120 ft | 206 kts | 218° |
| 2026-04-30 21:33 | 51.80217 | -8.53770 | 3294 ft | 256 kts | 264° |
| 2026-04-30 21:33 | 51.80090 | -8.56717 | 3693 ft | 269 kts | 261° |
| 2026-04-30 21:34 | 51.79849 | -8.59737 | 4689 ft | 272 kts | 258° |
| 2026-04-30 21:34 | 51.79523 | -8.65858 | 6790 ft | 284 kts | 274° |
| 2026-04-30 21:34 | 51.80208 | -8.68903 | 7729 ft | 297 kts | 300° |
| 2026-04-30 21:35 | 51.81745 | -8.71166 | 8669 ft | 307 kts | 332° |
| 2026-04-30 21:35 | 51.83825 | -8.71941 | 9625 ft | 312 kts | 1° |
| 2026-04-30 21:35 | 51.86012 | -8.71740 | 10444 ft | 321 kts | 8° |
| 2026-04-30 21:35 | 51.88280 | -8.71352 | 10838 ft | 343 kts | 8° |
| 2026-04-30 21:36 | 51.90709 | -8.70943 | 11237 ft | 354 kts | 8° |
| 2026-04-30 21:36 | 51.93164 | -8.70388 | 11531 ft | 362 kts | 14° |
| 2026-04-30 21:37 | 52.00893 | -8.68507 | 13458 ft | 375 kts | 6° |
| 2026-04-30 21:37 | 52.02653 | -8.68320 | 13993 ft | 376 kts | 6° |
| 2026-04-30 21:37 | 52.05276 | -8.68065 | 14577 ft | 380 kts | 6° |
| 2026-04-30 21:37 | 52.07926 | -8.67819 | 14959 ft | 384 kts | 6° |
| 2026-04-30 21:38 | 52.10599 | -8.67574 | 15220 ft | 386 kts | 5° |
| 2026-04-30 21:38 | 52.13285 | -8.67330 | 15455 ft | 387 kts | 5° |
| 2026-04-30 21:38 | 52.15954 | -8.67087 | 15706 ft | 390 kts | 5° |
| 2026-04-30 21:38 | 52.18667 | -8.66840 | 15962 ft | 391 kts | 5° |
| 2026-04-30 21:39 | 52.21392 | -8.66624 | 16322 ft | 394 kts | 2° |
| 2026-04-30 21:39 | 52.24148 | -8.66996 | 16737 ft | 402 kts | 352° |
| 2026-04-30 21:39 | 52.26910 | -8.67898 | 17160 ft | 406 kts | 347° |
| 2026-04-30 21:39 | 52.29647 | -8.69074 | 17586 ft | 399 kts | 344° |
| 2026-04-30 21:40 | 52.32155 | -8.70365 | 18058 ft | 356 kts | 338° |
| 2026-04-30 21:40 | 52.34274 | -8.71791 | 18374 ft | 311 kts | 336° |
| 2026-04-30 21:40 | 52.36134 | -8.73111 | 18676 ft | 272 kts | 334° |
| 2026-04-30 21:40 | 52.37731 | -8.74251 | 18930 ft | 231 kts | 342° |
| 2026-04-30 21:41 | 52.39345 | -8.75054 | 17342 ft | 289 kts | 351° |
| 2026-04-30 21:41 | 52.41384 | -8.75363 | 17816 ft | 289 kts | 19° |
| 2026-04-30 21:41 | 52.43166 | -8.74345 | 18578 ft | 266 kts | 27° |
| 2026-04-30 21:41 | 52.44993 | -8.74003 | 19385 ft | 272 kts | 356° |
| 2026-04-30 21:42 | 52.46917 | -8.74385 | 20155 ft | 279 kts | 346° |
| 2026-04-30 21:42 | 52.48521 | -8.75868 | 21327 ft | 256 kts | 297° |
| 2026-04-30 21:42 | 52.49453 | -8.78160 | 22319 ft | 226 kts | 302° |
| 2026-04-30 21:42 | 52.50641 | -8.79890 | 21504 ft | 236 kts | 347° |
| 2026-04-30 21:43 | 52.52246 | -8.81002 | 17862 ft | 266 kts | 349° |
| 2026-04-30 21:43 | 52.54328 | -8.81779 | 15083 ft | 358 kts | 352° |
| 2026-04-30 21:43 | 52.56482 | -8.82277 | 17377 ft | 284 kts | 355° |
| 2026-04-30 21:43 | 52.58370 | -8.82640 | 19040 ft | 266 kts | 355° |
| 2026-04-30 21:44 | 52.60227 | -8.82995 | 20022 ft | 270 kts | 359° |
| 2026-04-30 21:44 | 52.62091 | -8.83201 | 21076 ft | 271 kts | 354° |
| 2026-04-30 21:44 | 52.63977 | -8.83873 | 21783 ft | 283 kts | 344° |
| 2026-04-30 21:44 | 52.65864 | -8.84884 | 22058 ft | 286 kts | 340° |
| 2026-04-30 21:45 | 52.67740 | -8.86001 | 22064 ft | 286 kts | 340° |
| 2026-04-30 21:45 | 52.69591 | -8.87084 | 22068 ft | 284 kts | 341° |
| 2026-04-30 21:45 | 52.71492 | -8.87950 | 22069 ft | 282 kts | 352° |
| 2026-04-30 21:45 | 52.73435 | -8.88298 | 22079 ft | 277 kts | 1° |
| 2026-04-30 21:46 | 52.75326 | -8.88397 | 22071 ft | 268 kts | 5° |
| 2026-04-30 21:46 | 52.77211 | -8.88361 | 22354 ft | 273 kts | 7° |
| 2026-04-30 21:46 | 52.79111 | -8.88252 | 22890 ft | 273 kts | 8° |
| 2026-04-30 21:46 | 52.81007 | -8.88124 | 23067 ft | 272 kts | 8° |
| 2026-04-30 21:47 | 52.82931 | -8.87984 | 23123 ft | 284 kts | 8° |
| 2026-04-30 21:47 | 52.84972 | -8.87835 | 23400 ft | 304 kts | 7° |
| 2026-04-30 21:47 | 52.87158 | -8.87680 | 23700 ft | 331 kts | 7° |
| 2026-04-30 21:47 | 52.89532 | -8.87529 | 23921 ft | 352 kts | 6° |
| 2026-04-30 21:48 | 52.92036 | -8.87388 | 23970 ft | 366 kts | 6° |
| 2026-04-30 21:48 | 52.94591 | -8.87260 | 23973 ft | 369 kts | 6° |
| 2026-04-30 21:48 | 52.97188 | -8.87135 | 23957 ft | 377 kts | 5° |
| 2026-04-30 21:48 | 52.99830 | -8.87007 | 23973 ft | 381 kts | 5° |
| 2026-04-30 21:49 | 53.02483 | -8.86875 | 23976 ft | 382 kts | 5° |
| 2026-04-30 21:49 | 53.05143 | -8.86739 | 23973 ft | 382 kts | 5° |
| 2026-04-30 21:49 | 53.07802 | -8.86600 | 23973 ft | 382 kts | 6° |
| 2026-04-30 21:49 | 53.10474 | -8.86457 | 23978 ft | 389 kts | 6° |
| 2026-04-30 21:50 | 53.13232 | -8.86300 | 23979 ft | 402 kts | 6° |
| 2026-04-30 21:50 | 53.16033 | -8.86144 | 23973 ft | 400 kts | 5° |
| 2026-04-30 21:50 | 53.18812 | -8.85997 | 23973 ft | 398 kts | 5° |
| 2026-04-30 21:50 | 53.21576 | -8.85850 | 23974 ft | 397 kts | 5° |
| 2026-04-30 21:51 | 53.24337 | -8.85702 | 23975 ft | 396 kts | 5° |
| 2026-04-30 21:51 | 53.27077 | -8.85555 | 23969 ft | 388 kts | 5° |
| 2026-04-30 21:51 | 53.29714 | -8.85417 | 23969 ft | 380 kts | 6° |
| 2026-04-30 21:51 | 53.32341 | -8.85276 | 23981 ft | 381 kts | 6° |
| 2026-04-30 21:52 | 53.35135 | -8.85109 | 23981 ft | 410 kts | 6° |
| 2026-04-30 21:52 | 53.38070 | -8.84923 | 23745 ft | 426 kts | 5° |
| 2026-04-30 21:52 | 53.41028 | -8.84742 | 23633 ft | 426 kts | 5° |
| 2026-04-30 21:52 | 53.43951 | -8.84571 | 23499 ft | 425 kts | 5° |
| 2026-04-30 21:53 | 53.46905 | -8.84409 | 23287 ft | 426 kts | 5° |
| 2026-04-30 21:53 | 53.49881 | -8.84254 | 23017 ft | 429 kts | 5° |
| 2026-04-30 21:53 | 53.52874 | -8.84100 | 22740 ft | 431 kts | 5° |
| 2026-04-30 21:53 | 53.55892 | -8.83941 | 22490 ft | 441 kts | 5° |
| 2026-04-30 21:54 | 53.58968 | -8.83779 | 22188 ft | 443 kts | 5° |
| 2026-04-30 21:54 | 53.62037 | -8.83617 | 22081 ft | 439 kts | 4° |
| 2026-04-30 21:54 | 53.65101 | -8.83452 | 22082 ft | 443 kts | 4° |
| 2026-04-30 21:54 | 53.68075 | -8.83295 | 22065 ft | 413 kts | 4° |
| 2026-04-30 21:55 | 53.70853 | -8.83153 | 22069 ft | 386 kts | 5° |
| 2026-04-30 21:55 | 53.73455 | -8.83018 | 22065 ft | 362 kts | 5° |
| 2026-04-30 21:55 | 53.75889 | -8.82888 | 22064 ft | 338 kts | 5° |
| 2026-04-30 21:55 | 53.78167 | -8.82765 | 22059 ft | 316 kts | 5° |
| 2026-04-30 21:56 | 53.80287 | -8.82649 | 22054 ft | 294 kts | 6° |
| 2026-04-30 21:56 | 53.82251 | -8.82542 | 22047 ft | 271 kts | 6° |
| 2026-04-30 21:56 | 53.84049 | -8.82446 | 22022 ft | 246 kts | 7° |
| 2026-04-30 21:56 | 53.85733 | -8.82346 | 21849 ft | 251 kts | 7° |
| 2026-04-30 21:57 | 53.87549 | -8.82178 | 21613 ft | 270 kts | 8° |
| 2026-04-30 21:57 | 53.89451 | -8.81946 | 21458 ft | 276 kts | 9° |
| 2026-04-30 21:57 | 53.91367 | -8.81662 | 21295 ft | 277 kts | 10° |
| 2026-04-30 21:57 | 53.93252 | -8.81330 | 21144 ft | 275 kts | 11° |
| 2026-04-30 21:58 | 53.95151 | -8.80940 | 21012 ft | 274 kts | 12° |
| 2026-04-30 21:58 | 53.97037 | -8.80486 | 20909 ft | 275 kts | 13° |
| 2026-04-30 21:58 | 53.98942 | -8.79851 | 20844 ft | 286 kts | 24° |
| 2026-04-30 21:58 | 54.00866 | -8.78586 | 20722 ft | 312 kts | 28° |
| 2026-04-30 21:59 | 54.02999 | -8.77093 | 20497 ft | 351 kts | 27° |
| 2026-04-30 21:59 | 54.05385 | -8.75429 | 20279 ft | 389 kts | 26° |
| 2026-04-30 21:59 | 54.07974 | -8.73645 | 20046 ft | 408 kts | 26° |
| 2026-04-30 22:00 | 54.13266 | -8.70056 | 19561 ft | 409 kts | 25° |
| 2026-04-30 22:00 | 54.18546 | -8.66462 | 19085 ft | 407 kts | 25° |
| 2026-04-30 22:00 | 54.21166 | -8.64664 | 18708 ft | 405 kts | 25° |
| 2026-04-30 22:01 | 54.23768 | -8.62870 | 18026 ft | 401 kts | 25° |
| 2026-04-30 22:01 | 54.26344 | -8.61104 | 17319 ft | 397 kts | 23° |
| 2026-04-30 22:01 | 54.28996 | -8.59828 | 16654 ft | 394 kts | 17° |
| 2026-04-30 22:01 | 54.31653 | -8.58726 | 16003 ft | 391 kts | 15° |
| 2026-04-30 22:02 | 54.34267 | -8.57771 | 15283 ft | 388 kts | 14° |
| 2026-04-30 22:02 | 54.36911 | -8.56878 | 14586 ft | 385 kts | 13° |
| 2026-04-30 22:02 | 54.39525 | -8.56027 | 14126 ft | 379 kts | 13° |
| 2026-04-30 22:02 | 54.42118 | -8.55186 | 13812 ft | 378 kts | 13° |
| 2026-04-30 22:03 | 54.44691 | -8.54345 | 13745 ft | 371 kts | 13° |
| 2026-04-30 22:03 | 54.47169 | -8.53528 | 13505 ft | 354 kts | 13° |
| 2026-04-30 22:03 | 54.49549 | -8.52737 | 13280 ft | 341 kts | 13° |
| 2026-04-30 22:03 | 54.51837 | -8.51968 | 13079 ft | 329 kts | 13° |
| 2026-04-30 22:04 | 54.54028 | -8.51227 | 12798 ft | 321 kts | 13° |
| 2026-04-30 22:04 | 54.56208 | -8.50486 | 12428 ft | 318 kts | 13° |
| 2026-04-30 22:04 | 54.60511 | -8.49018 | 11730 ft | 310 kts | 13° |
| 2026-04-30 22:05 | 54.62594 | -8.48309 | 11564 ft | 300 kts | 13° |
| 2026-04-30 22:05 | 54.64611 | -8.47624 | 11409 ft | 290 kts | 13° |
| 2026-04-30 22:05 | 54.66555 | -8.46964 | 11276 ft | 278 kts | 14° |
| 2026-04-30 22:05 | 54.68397 | -8.46340 | 10826 ft | 263 kts | 14° |
| 2026-04-30 22:06 | 54.70175 | -8.45734 | 10136 ft | 259 kts | 14° |
| 2026-04-30 22:06 | 54.73728 | -8.45138 | 8634 ft | 254 kts | 3° |
| 2026-04-30 22:06 | 54.75482 | -8.45073 | 7895 ft | 250 kts | 2° |
| 2026-04-30 22:07 | 54.77214 | -8.45018 | 7107 ft | 247 kts | 2° |
| 2026-04-30 22:07 | 54.78916 | -8.44968 | 6353 ft | 241 kts | 2° |
| 2026-04-30 22:07 | 54.80538 | -8.44932 | 5708 ft | 227 kts | 2° |
| 2026-04-30 22:07 | 54.82080 | -8.44925 | 5186 ft | 221 kts | 2° |
| 2026-04-30 22:08 | 54.83615 | -8.44947 | 5016 ft | 219 kts | 2° |
| 2026-04-30 22:08 | 54.85139 | -8.44984 | 4998 ft | 218 kts | 2° |
| 2026-04-30 22:08 | 54.86656 | -8.45025 | 4990 ft | 218 kts | 2° |
| 2026-04-30 22:08 | 54.88165 | -8.45068 | 4918 ft | 213 kts | 2° |
| 2026-04-30 22:09 | 54.89650 | -8.45115 | 4549 ft | 214 kts | 2° |
| 2026-04-30 22:09 | 54.91143 | -8.45170 | 4170 ft | 215 kts | 2° |
| 2026-04-30 22:09 | 54.92632 | -8.45465 | 3785 ft | 218 kts | 341° |
| 2026-04-30 22:09 | 54.93928 | -8.46827 | 3436 ft | 218 kts | 320° |
| 2026-04-30 22:10 | 54.95077 | -8.48533 | 3091 ft | 216 kts | 317° |
| 2026-04-30 22:10 | 54.96193 | -8.50270 | 2783 ft | 214 kts | 316° |
| 2026-04-30 22:10 | 54.97293 | -8.51995 | 2457 ft | 211 kts | 316° |
| 2026-04-30 22:10 | 54.98462 | -8.53448 | 2262 ft | 204 kts | 342° |
| 2026-04-30 22:11 | 55.01068 | -8.53285 | 1983 ft | 181 kts | 16° |
| 2026-04-30 22:11 | 55.02274 | -8.52819 | 1773 ft | 179 kts | 17° |
| 2026-04-30 22:11 | 55.03465 | -8.52266 | 1571 ft | 175 kts | 22° |
| 2026-04-30 22:12 | 55.04606 | -8.51567 | 1348 ft | 173 kts | 24° |
| 2026-04-30 22:12 | 55.05723 | -8.50839 | 1123 ft | 171 kts | 24° |
| 2026-04-30 22:12 | 55.06825 | -8.50096 | 1013 ft | 168 kts | 24° |
| 2026-04-30 22:12 | 55.07903 | -8.49360 | 998 ft | 165 kts | 24° |
| 2026-04-30 22:13 | 55.08972 | -8.48627 | 992 ft | 165 kts | 24° |
| 2026-04-30 22:13 | 55.10020 | -8.47845 | 1000 ft | 162 kts | 35° |
| 2026-04-30 22:13 | 55.10644 | -8.46316 | 998 ft | 155 kts | 81° |
| 2026-04-30 22:13 | 55.10620 | -8.44451 | 1002 ft | 154 kts | 102° |
| 2026-04-30 22:14 | 55.10378 | -8.42644 | 999 ft | 155 kts | 106° |
| 2026-04-30 22:14 | 55.10086 | -8.40810 | 999 ft | 155 kts | 107° |
| 2026-04-30 22:14 | 55.09793 | -8.39015 | 1002 ft | 149 kts | 107° |
| 2026-04-30 22:14 | 55.09529 | -8.37371 | 962 ft | 134 kts | 107° |
| 2026-04-30 22:15 | 55.09276 | -8.35860 | 827 ft | 130 kts | 111° |
| 2026-04-30 22:15 | 55.08869 | -8.34442 | 787 ft | 131 kts | 124° |
| 2026-04-30 22:15 | 55.08238 | -8.33319 | 662 ft | 131 kts | 146° |
| 2026-04-30 22:15 | 55.07390 | -8.32762 | 579 ft | 132 kts | 177° |
| 2026-04-30 22:16 | 55.06480 | -8.32888 | 416 ft | 133 kts | 187° |
| 2026-04-30 22:16 | 55.05588 | -8.33343 | 198 ft | 133 kts | 199° |
| 2026-04-30 22:17 | 55.03927 | -8.34418 | 42 ft | 14 kts | 196° |
| 2026-04-30 22:17 | 55.03874 | -8.34331 | 43 ft | 10 kts | 97° |
| 2026-04-30 22:17 | 55.03883 | -8.34228 | 43 ft | 4 kts | 92° |
| 2026-04-30 22:18 | 55.03887 | -8.34183 | 43 ft | 4 kts | 60° |
| 2026-04-30 22:18 | 55.03907 | -8.34159 | 43 ft | 0 kts | 26° |
| 2026-04-30 22:19 | 55.03923 | -8.34164 | 43 ft | 1 kts | 311° |
| 2026-04-30 22:19 | 55.03924 | -8.34175 | 43 ft | 0 kts | 290° |